sensor_id;sensor_type;location;lat;lon;timestamp;pressure;altitude;pressure_sealevel;temperature;humidity
68948;BME280;55996;49.546;7.400;2024-02-26T00:01:27;96622.31;;;7.53;93.89
68948;BME280;55996;49.546;7.400;2024-02-26T00:03:53;96619.66;;;7.70;76.24
68948;BME280;55996;49.546;7.400;2024-02-26T00:06:20;96624.44;;;7.78;78.72
68948;BME280;55996;49.546;7.400;2024-02-26T00:08:46;96627.81;;;7.64;78.32
68948;BME280;55996;49.546;7.400;2024-02-26T00:11:11;96658.50;;;7.73;78.30
68948;BME280;55996;49.546;7.400;2024-02-26T00:13:36;96648.44;;;7.67;82.59
68948;BME280;55996;49.546;7.400;2024-02-26T00:16:04;96647.25;;;7.57;88.97
68948;BME280;55996;49.546;7.400;2024-02-26T00:18:31;96641.19;;;7.56;94.90
68948;BME280;55996;49.546;7.400;2024-02-26T00:20:56;96643.75;;;7.58;93.46
68948;BME280;55996;49.546;7.400;2024-02-26T00:23:22;96630.63;;;7.43;95.27
68948;BME280;55996;49.546;7.400;2024-02-26T00:25:49;96636.72;;;7.26;100.00
68948;BME280;55996;49.546;7.400;2024-02-26T00:28:14;96631.84;;;7.20;100.00
68948;BME280;55996;49.546;7.400;2024-02-26T00:30:39;96626.09;;;6.98;100.00
68948;BME280;55996;49.546;7.400;2024-02-26T00:33:05;96649.00;;;7.07;100.00
68948;BME280;55996;49.546;7.400;2024-02-26T00:35:30;96652.97;;;7.14;100.00
68948;BME280;55996;49.546;7.400;2024-02-26T00:37:56;96661.94;;;7.08;100.00
68948;BME280;55996;49.546;7.400;2024-02-26T00:40:21;96644.81;;;7.04;100.00
68948;BME280;55996;49.546;7.400;2024-02-26T00:42:47;96647.44;;;6.87;100.00
68948;BME280;55996;49.546;7.400;2024-02-26T00:45:13;96641.00;;;6.94;100.00
68948;BME280;55996;49.546;7.400;2024-02-26T00:47:39;96645.69;;;6.87;100.00
68948;BME280;55996;49.546;7.400;2024-02-26T00:50:06;96638.38;;;6.60;100.00
68948;BME280;55996;49.546;7.400;2024-02-26T00:52:32;96639.22;;;6.78;100.00
68948;BME280;55996;49.546;7.400;2024-02-26T00:54:57;96630.59;;;6.60;100.00
68948;BME280;55996;49.546;7.400;2024-02-26T00:57:22;96633.00;;;6.63;100.00
68948;BME280;55996;49.546;7.400;2024-02-26T00:59:48;96630.19;;;6.51;100.00
68948;BME280;55996;49.546;7.400;2024-02-26T01:02:13;96635.88;;;6.59;100.00
68948;BME280;55996;49.546;7.400;2024-02-26T01:04:39;96636.16;;;6.53;100.00
68948;BME280;55996;49.546;7.400;2024-02-26T01:07:04;96636.91;;;6.55;100.00
68948;BME280;55996;49.546;7.400;2024-02-26T01:09:30;96632.72;;;6.52;100.00
68948;BME280;55996;49.546;7.400;2024-02-26T01:11:56;96630.75;;;6.57;100.00
68948;BME280;55996;49.546;7.400;2024-02-26T01:14:21;96638.16;;;6.65;100.00
68948;BME280;55996;49.546;7.400;2024-02-26T01:16:46;96635.88;;;6.59;100.00
68948;BME280;55996;49.546;7.400;2024-02-26T01:19:12;96626.09;;;6.46;100.00
68948;BME280;55996;49.546;7.400;2024-02-26T01:21:37;96631.97;;;6.50;100.00
68948;BME280;55996;49.546;7.400;2024-02-26T01:24:02;96628.00;;;6.60;100.00
68948;BME280;55996;49.546;7.400;2024-02-26T01:26:28;96614.03;;;6.45;100.00
68948;BME280;55996;49.546;7.400;2024-02-26T01:28:53;96621.34;;;6.37;100.00
68948;BME280;55996;49.546;7.400;2024-02-26T01:31:20;96631.06;;;6.51;100.00
68948;BME280;55996;49.546;7.400;2024-02-26T01:33:45;96639.19;;;6.61;100.00
68948;BME280;55996;49.546;7.400;2024-02-26T01:36:10;96633.88;;;6.64;100.00
68948;BME280;55996;49.546;7.400;2024-02-26T01:38:36;96632.66;;;6.71;100.00
68948;BME280;55996;49.546;7.400;2024-02-26T01:41:01;96630.50;;;6.62;100.00
68948;BME280;55996;49.546;7.400;2024-02-26T01:43:27;96634.41;;;6.53;100.00
68948;BME280;55996;49.546;7.400;2024-02-26T01:45:53;96629.97;;;6.55;100.00
68948;BME280;55996;49.546;7.400;2024-02-26T01:48:18;96635.16;;;6.55;100.00
68948;BME280;55996;49.546;7.400;2024-02-26T01:50:44;96631.97;;;6.50;100.00
68948;BME280;55996;49.546;7.400;2024-02-26T01:53:09;96648.06;;;6.57;100.00
68948;BME280;55996;49.546;7.400;2024-02-26T01:55:35;96646.25;;;6.59;100.00
68948;BME280;55996;49.546;7.400;2024-02-26T01:58:02;96635.25;;;6.54;100.00
68948;BME280;55996;49.546;7.400;2024-02-26T02:00:27;96646.84;;;6.46;100.00
68948;BME280;55996;49.546;7.400;2024-02-26T02:02:53;96651.75;;;6.53;100.00
68948;BME280;55996;49.546;7.400;2024-02-26T02:05:20;96650.28;;;6.29;100.00
68948;BME280;55996;49.546;7.400;2024-02-26T02:07:46;96654.47;;;6.32;100.00
68948;BME280;55996;49.546;7.400;2024-02-26T02:10:14;96655.47;;;6.29;100.00
68948;BME280;55996;49.546;7.400;2024-02-26T02:12:40;96654.47;;;6.32;100.00
68948;BME280;55996;49.546;7.400;2024-02-26T02:15:06;96651.09;;;6.30;100.00
68948;BME280;55996;49.546;7.400;2024-02-26T02:17:32;96643.66;;;6.41;100.00
68948;BME280;55996;49.546;7.400;2024-02-26T02:19:57;96638.97;;;5.94;100.00
68948;BME280;55996;49.546;7.400;2024-02-26T02:22:22;96634.38;;;6.01;100.00
68948;BME280;55996;49.546;7.400;2024-02-26T02:24:52;96652.63;;;6.17;100.00
68948;BME280;55996;49.546;7.400;2024-02-26T02:27:18;96643.78;;;6.21;100.00
68948;BME280;55996;49.546;7.400;2024-02-26T02:29:44;96640.19;;;6.23;100.00
68948;BME280;55996;49.546;7.400;2024-02-26T02:32:09;96641.50;;;6.32;100.00
68948;BME280;55996;49.546;7.400;2024-02-26T02:34:35;96636.88;;;6.02;100.00
68948;BME280;55996;49.546;7.400;2024-02-26T02:37:00;96650.94;;;6.16;100.00
68948;BME280;55996;49.546;7.400;2024-02-26T02:39:26;96638.34;;;6.08;100.00
68948;BME280;55996;49.546;7.400;2024-02-26T02:41:51;96632.91;;;6.12;100.00
68948;BME280;55996;49.546;7.400;2024-02-26T02:44:16;96629.66;;;5.90;100.00
68948;BME280;55996;49.546;7.400;2024-02-26T02:46:42;96627.53;;;5.98;100.00
68948;BME280;55996;49.546;7.400;2024-02-26T02:49:09;96631.22;;;6.11;100.00
68948;BME280;55996;49.546;7.400;2024-02-26T02:51:35;96626.59;;;6.18;100.00
68948;BME280;55996;49.546;7.400;2024-02-26T02:54:01;96619.34;;;6.07;100.00
68948;BME280;55996;49.546;7.400;2024-02-26T02:56:26;96620.75;;;5.95;100.00
68948;BME280;55996;49.546;7.400;2024-02-26T02:58:52;96613.19;;;5.91;100.00
68948;BME280;55996;49.546;7.400;2024-02-26T03:01:17;96630.19;;;5.96;100.00
68948;BME280;55996;49.546;7.400;2024-02-26T03:03:42;96614.44;;;6.01;100.00
68948;BME280;55996;49.546;7.400;2024-02-26T03:06:08;96617.81;;;6.03;100.00
68948;BME280;55996;49.546;7.400;2024-02-26T03:08:33;96623.84;;;6.04;100.00
68948;BME280;55996;49.546;7.400;2024-02-26T03:11:02;96610.94;;;6.02;100.00
68948;BME280;55996;49.546;7.400;2024-02-26T03:13:27;96620.28;;;5.87;100.00
68948;BME280;55996;49.546;7.400;2024-02-26T03:15:52;96627.34;;;5.84;100.00
68948;BME280;55996;49.546;7.400;2024-02-26T03:18:18;96603.81;;;5.69;100.00
68948;BME280;55996;49.546;7.400;2024-02-26T03:20:43;96619.91;;;5.95;100.00
68948;BME280;55996;49.546;7.400;2024-02-26T03:23:08;96622.69;;;5.90;100.00
68948;BME280;55996;49.546;7.400;2024-02-26T03:25:37;96606.50;;;5.68;100.00
68948;BME280;55996;49.546;7.400;2024-02-26T03:28:02;96619.78;;;5.79;100.00
68948;BME280;55996;49.546;7.400;2024-02-26T03:30:27;96618.50;;;5.88;100.00
68948;BME280;55996;49.546;7.400;2024-02-26T03:32:53;96621.84;;;5.72;100.00
68948;BME280;55996;49.546;7.400;2024-02-26T03:35:19;96613.19;;;5.72;100.00
68948;BME280;55996;49.546;7.400;2024-02-26T03:37:46;96609.66;;;5.74;100.00
68948;BME280;55996;49.546;7.400;2024-02-26T03:40:12;96621.03;;;5.89;100.00
68948;BME280;55996;49.546;7.400;2024-02-26T03:42:39;96621.06;;;5.70;100.00
68948;BME280;55996;49.546;7.400;2024-02-26T03:45:06;96617.56;;;5.71;100.00
68948;BME280;55996;49.546;7.400;2024-02-26T03:47:31;96603.28;;;5.62;100.00
68948;BME280;55996;49.546;7.400;2024-02-26T03:49:57;96608.00;;;5.72;100.00
68948;BME280;55996;49.546;7.400;2024-02-26T03:52:24;96603.28;;;5.62;100.00
68948;BME280;55996;49.546;7.400;2024-02-26T03:54:49;96616.34;;;5.78;100.00
68948;BME280;55996;49.546;7.400;2024-02-26T03:57:15;96617.69;;;5.87;100.00
68948;BME280;55996;49.546;7.400;2024-02-26T03:59:40;96610.09;;;5.82;100.00
68948;BME280;55996;49.546;7.400;2024-02-26T04:02:05;96615.28;;;5.82;100.00
68948;BME280;55996;49.546;7.400;2024-02-26T04:04:34;96618.84;;;5.62;100.00
68948;BME280;55996;49.546;7.400;2024-02-26T04:06:59;96624.28;;;5.75;100.00
68948;BME280;55996;49.546;7.400;2024-02-26T04:09:24;96615.75;;;5.73;100.00
68948;BME280;55996;49.546;7.400;2024-02-26T04:11:50;96603.69;;;5.72;100.00
68948;BME280;55996;49.546;7.400;2024-02-26T04:14:15;96603.41;;;5.78;100.00
68948;BME280;55996;49.546;7.400;2024-02-26T04:16:40;96606.09;;;5.94;100.00
68948;BME280;55996;49.546;7.400;2024-02-26T04:19:06;96604.34;;;5.95;100.00
68948;BME280;55996;49.546;7.400;2024-02-26T04:21:32;96611.72;;;6.04;100.00
68948;BME280;55996;49.546;7.400;2024-02-26T04:23:57;96602.88;;;6.08;100.00
68948;BME280;55996;49.546;7.400;2024-02-26T04:26:26;96618.50;;;6.07;100.00
68948;BME280;55996;49.546;7.400;2024-02-26T04:28:51;96607.53;;;6.02;100.00
68948;BME280;55996;49.546;7.400;2024-02-26T04:31:18;96612.47;;;6.06;100.00
68948;BME280;55996;49.546;7.400;2024-02-26T04:33:43;96608.63;;;5.96;100.00
68948;BME280;55996;49.546;7.400;2024-02-26T04:36:13;96609.13;;;6.04;100.00
68948;BME280;55996;49.546;7.400;2024-02-26T04:38:40;96612.84;;;5.98;100.00
68948;BME280;55996;49.546;7.400;2024-02-26T04:41:05;96625.59;;;6.03;100.00
68948;BME280;55996;49.546;7.400;2024-02-26T04:43:30;96612.75;;;6.00;100.00
68948;BME280;55996;49.546;7.400;2024-02-26T04:45:56;96624.75;;;6.03;100.00
68948;BME280;55996;49.546;7.400;2024-02-26T04:48:22;96616.56;;;5.93;100.00
68948;BME280;55996;49.546;7.400;2024-02-26T04:50:48;96631.94;;;5.96;100.00
68948;BME280;55996;49.546;7.400;2024-02-26T04:53:13;96604.41;;;5.93;100.00
68948;BME280;55996;49.546;7.400;2024-02-26T04:55:39;96629.03;;;6.04;100.00
68948;BME280;55996;49.546;7.400;2024-02-26T04:58:04;96610.72;;;5.88;100.00
68948;BME280;55996;49.546;7.400;2024-02-26T05:00:29;96635.31;;;5.98;100.00
68948;BME280;55996;49.546;7.400;2024-02-26T05:02:55;96630.28;;;5.95;100.00
68948;BME280;55996;49.546;7.400;2024-02-26T05:05:20;96631.13;;;5.95;100.00
68948;BME280;55996;49.546;7.400;2024-02-26T05:07:45;96638.56;;;6.03;100.00
68948;BME280;55996;49.546;7.400;2024-02-26T05:10:11;96619.75;;;5.98;100.00
68948;BME280;55996;49.546;7.400;2024-02-26T05:12:36;96644.50;;;6.05;100.00
68948;BME280;55996;49.546;7.400;2024-02-26T05:15:02;96641.59;;;6.11;100.00
68948;BME280;55996;49.546;7.400;2024-02-26T05:17:28;96652.84;;;6.12;100.00
68948;BME280;55996;49.546;7.400;2024-02-26T05:19:53;96653.97;;;6.06;100.00
68948;BME280;55996;49.546;7.400;2024-02-26T05:22:19;96649.16;;;5.98;100.00
68948;BME280;55996;49.546;7.400;2024-02-26T05:24:44;96642.19;;;5.99;100.00
68948;BME280;55996;49.546;7.400;2024-02-26T05:27:09;96650.69;;;6.03;100.00
68948;BME280;55996;49.546;7.400;2024-02-26T05:29:35;96653.91;;;6.08;100.00
68948;BME280;55996;49.546;7.400;2024-02-26T05:32:01;96656.50;;;6.08;100.00
68948;BME280;55996;49.546;7.400;2024-02-26T05:34:26;96631.25;;;5.92;100.00
68948;BME280;55996;49.546;7.400;2024-02-26T05:36:52;96649.19;;;6.16;100.00
68948;BME280;55996;49.546;7.400;2024-02-26T05:39:17;96646.81;;;6.11;100.00
68948;BME280;55996;49.546;7.400;2024-02-26T05:41:42;96656.97;;;6.16;100.00
68948;BME280;55996;49.546;7.400;2024-02-26T05:44:08;96644.44;;;6.07;100.00
68948;BME280;55996;49.546;7.400;2024-02-26T05:46:35;96653.47;;;5.98;100.00
68948;BME280;55996;49.546;7.400;2024-02-26T05:49:00;96653.44;;;6.00;100.00
68948;BME280;55996;49.546;7.400;2024-02-26T05:51:26;96653.47;;;5.98;100.00
68948;BME280;55996;49.546;7.400;2024-02-26T05:53:51;96660.66;;;5.93;100.00
68948;BME280;55996;49.546;7.400;2024-02-26T05:56:21;96661.38;;;5.95;100.00
68948;BME280;55996;49.546;7.400;2024-02-26T05:58:46;96653.19;;;5.85;100.00
68948;BME280;55996;49.546;7.400;2024-02-26T06:01:12;96668.63;;;5.88;100.00
68948;BME280;55996;49.546;7.400;2024-02-26T06:03:37;96660.41;;;5.97;100.00
68948;BME280;55996;49.546;7.400;2024-02-26T06:06:03;96665.84;;;5.93;100.00
68948;BME280;55996;49.546;7.400;2024-02-26T06:08:28;96660.78;;;5.90;100.00
68948;BME280;55996;49.546;7.400;2024-02-26T06:10:53;96658.88;;;5.93;100.00
68948;BME280;55996;49.546;7.400;2024-02-26T06:13:19;96682.13;;;5.95;100.00
68948;BME280;55996;49.546;7.400;2024-02-26T06:15:44;96686.28;;;5.99;100.00
68948;BME280;55996;49.546;7.400;2024-02-26T06:18:13;96672.06;;;5.89;100.00
68948;BME280;55996;49.546;7.400;2024-02-26T06:20:38;96678.09;;;5.89;100.00
68948;BME280;55996;49.546;7.400;2024-02-26T06:23:03;96680.81;;;5.86;100.00
68948;BME280;55996;49.546;7.400;2024-02-26T06:25:29;96683.63;;;5.81;100.00
68948;BME280;55996;49.546;7.400;2024-02-26T06:27:54;96684.56;;;5.80;100.00
68948;BME280;55996;49.546;7.400;2024-02-26T06:30:20;96686.88;;;5.87;100.00
68948;BME280;55996;49.546;7.400;2024-02-26T06:32:45;96684.94;;;5.90;100.00
68948;BME280;55996;49.546;7.400;2024-02-26T06:35:11;96694.97;;;5.98;100.00
68948;BME280;55996;49.546;7.400;2024-02-26T06:37:36;96698.22;;;6.03;100.00
68948;BME280;55996;49.546;7.400;2024-02-26T06:40:02;96675.34;;;5.92;100.00
68948;BME280;55996;49.546;7.400;2024-02-26T06:42:32;96699.97;;;6.03;100.00
68948;BME280;55996;49.546;7.400;2024-02-26T06:44:57;96686.00;;;6.05;100.00
68948;BME280;55996;49.546;7.400;2024-02-26T06:47:23;96682.75;;;6.02;100.00
68948;BME280;55996;49.546;7.400;2024-02-26T06:49:48;96693.50;;;6.11;100.00
68948;BME280;55996;49.546;7.400;2024-02-26T06:52:14;96681.47;;;6.10;100.00
68948;BME280;55996;49.546;7.400;2024-02-26T06:54:39;96700.75;;;6.05;100.00
68948;BME280;55996;49.546;7.400;2024-02-26T06:57:04;96692.75;;;6.09;100.00
68948;BME280;55996;49.546;7.400;2024-02-26T06:59:30;96688.31;;;6.11;100.00
68948;BME280;55996;49.546;7.400;2024-02-26T07:01:55;96698.03;;;6.08;100.00
68948;BME280;55996;49.546;7.400;2024-02-26T07:04:20;96717.78;;;6.10;100.00
68948;BME280;55996;49.546;7.400;2024-02-26T07:06:46;96693.78;;;6.05;100.00
68948;BME280;55996;49.546;7.400;2024-02-26T07:09:12;96693.28;;;5.97;100.00
68948;BME280;55996;49.546;7.400;2024-02-26T07:11:38;96701.28;;;6.11;100.00
68948;BME280;55996;49.546;7.400;2024-02-26T07:14:07;96723.72;;;6.12;100.00
68948;BME280;55996;49.546;7.400;2024-02-26T07:16:32;96711.72;;;6.10;100.00
68948;BME280;55996;49.546;7.400;2024-02-26T07:18:57;96739.31;;;6.30;100.00
68948;BME280;55996;49.546;7.400;2024-02-26T07:21:23;96727.22;;;6.30;100.00
68948;BME280;55996;49.546;7.400;2024-02-26T07:23:48;96724.53;;;6.32;100.00
68948;BME280;55996;49.546;7.400;2024-02-26T07:26:14;96726.84;;;6.38;100.00
68948;BME280;55996;49.546;7.400;2024-02-26T07:28:39;96733.34;;;6.47;100.00
68948;BME280;55996;49.546;7.400;2024-02-26T07:31:04;96732.91;;;6.20;100.00
68948;BME280;55996;49.546;7.400;2024-02-26T07:33:30;96736.41;;;6.19;100.00
68948;BME280;55996;49.546;7.400;2024-02-26T07:35:55;96754.41;;;6.41;100.00
68948;BME280;55996;49.546;7.400;2024-02-26T07:38:21;96741.34;;;6.42;100.00
68948;BME280;55996;49.546;7.400;2024-02-26T07:40:46;96754.19;;;6.45;100.00
68948;BME280;55996;49.546;7.400;2024-02-26T07:43:12;96757.41;;;6.51;100.00
68948;BME280;55996;49.546;7.400;2024-02-26T07:45:37;96732.03;;;6.38;100.00
68948;BME280;55996;49.546;7.400;2024-02-26T07:48:02;96747.19;;;6.48;100.00
68948;BME280;55996;49.546;7.400;2024-02-26T07:50:28;96754.59;;;6.55;100.00
68948;BME280;55996;49.546;7.400;2024-02-26T07:52:53;96754.44;;;6.58;100.00
68948;BME280;55996;49.546;7.400;2024-02-26T07:55:19;96756.69;;;6.47;100.00
68948;BME280;55996;49.546;7.400;2024-02-26T07:57:44;96762.47;;;6.54;100.00
68948;BME280;55996;49.546;7.400;2024-02-26T08:00:10;96756.63;;;6.49;100.00
68948;BME280;55996;49.546;7.400;2024-02-26T08:02:36;96772.97;;;6.51;100.00
68948;BME280;55996;49.546;7.400;2024-02-26T08:05:01;96771.44;;;6.46;100.00
68948;BME280;55996;49.546;7.400;2024-02-26T08:07:27;96788.13;;;6.60;100.00
68948;BME280;55996;49.546;7.400;2024-02-26T08:09:53;96780.25;;;6.61;100.00
68948;BME280;55996;49.546;7.400;2024-02-26T08:12:18;96782.97;;;6.58;100.00
68948;BME280;55996;49.546;7.400;2024-02-26T08:14:44;96786.19;;;6.63;100.00
68948;BME280;55996;49.546;7.400;2024-02-26T08:17:10;96784.25;;;6.69;100.00
68948;BME280;55996;49.546;7.400;2024-02-26T08:19:35;96784.78;;;6.75;100.00
68948;BME280;55996;49.546;7.400;2024-02-26T08:22:01;96777.97;;;6.73;100.00
68948;BME280;55996;49.546;7.400;2024-02-26T08:24:26;96786.94;;;6.85;100.00
68948;BME280;55996;49.546;7.400;2024-02-26T08:26:52;96782.72;;;6.82;100.00
68948;BME280;55996;49.546;7.400;2024-02-26T08:29:17;96777.78;;;6.95;100.00
68948;BME280;55996;49.546;7.400;2024-02-26T08:31:42;96781.75;;;7.02;100.00
68948;BME280;55996;49.546;7.400;2024-02-26T08:34:08;96770.66;;;6.99;100.00
68948;BME280;55996;49.546;7.400;2024-02-26T08:36:33;96775.66;;;7.03;100.00
68948;BME280;55996;49.546;7.400;2024-02-26T08:38:59;96784.28;;;7.04;100.00
68948;BME280;55996;49.546;7.400;2024-02-26T08:41:25;96787.88;;;7.01;100.00
68948;BME280;55996;49.546;7.400;2024-02-26T08:43:50;96789.59;;;7.01;100.00
68948;BME280;55996;49.546;7.400;2024-02-26T08:46:16;96796.56;;;7.18;100.00
68948;BME280;55996;49.546;7.400;2024-02-26T08:48:41;96805.97;;;7.20;100.00
68948;BME280;55996;49.546;7.400;2024-02-26T08:51:08;96789.06;;;7.11;100.00
68948;BME280;55996;49.546;7.400;2024-02-26T08:53:34;96798.47;;;7.32;100.00
68948;BME280;55996;49.546;7.400;2024-02-26T08:55:59;96792.91;;;7.39;100.00
68948;BME280;55996;49.546;7.400;2024-02-26T08:58:26;96792.34;;;7.33;100.00
68948;BME280;55996;49.546;7.400;2024-02-26T09:00:52;96794.53;;;7.24;100.00
68948;BME280;55996;49.546;7.400;2024-02-26T09:03:18;96782.28;;;7.26;100.00
68948;BME280;55996;49.546;7.400;2024-02-26T09:05:43;96803.00;;;7.46;100.00
68948;BME280;55996;49.546;7.400;2024-02-26T09:08:08;96786.44;;;7.47;100.00
68948;BME280;55996;49.546;7.400;2024-02-26T09:10:34;96801.28;;;7.62;100.00
68948;BME280;55996;49.546;7.400;2024-02-26T09:12:59;96800.34;;;7.63;100.00
68948;BME280;55996;49.546;7.400;2024-02-26T09:15:25;96812.44;;;7.64;100.00
68948;BME280;55996;49.546;7.400;2024-02-26T09:17:50;96806.72;;;7.57;100.00
68948;BME280;55996;49.546;7.400;2024-02-26T09:20:17;96821.50;;;7.39;100.00
68948;BME280;55996;49.546;7.400;2024-02-26T09:22:46;96788.44;;;7.41;100.00
68948;BME280;55996;49.546;7.400;2024-02-26T09:25:11;96817.41;;;7.51;100.00
68948;BME280;55996;49.546;7.400;2024-02-26T09:27:36;96812.59;;;7.61;100.00
68948;BME280;55996;49.546;7.400;2024-02-26T09:30:02;96834.22;;;7.79;100.00
68948;BME280;55996;49.546;7.400;2024-02-26T09:32:28;96837.56;;;7.81;100.00
68948;BME280;55996;49.546;7.400;2024-02-26T09:34:53;96831.34;;;7.84;100.00
68948;BME280;55996;49.546;7.400;2024-02-26T09:37:18;96853.25;;;7.80;100.00
68948;BME280;55996;49.546;7.400;2024-02-26T09:39:44;96842.44;;;7.87;100.00
68948;BME280;55996;49.546;7.400;2024-02-26T09:42:11;96838.19;;;7.86;100.00
68948;BME280;55996;49.546;7.400;2024-02-26T09:44:40;96830.97;;;7.58;100.00
68948;BME280;55996;49.546;7.400;2024-02-26T09:47:09;96842.81;;;7.46;100.00
68948;BME280;55996;49.546;7.400;2024-02-26T09:49:36;96843.13;;;7.57;100.00
68948;BME280;55996;49.546;7.400;2024-02-26T09:52:04;96846.69;;;7.72;100.00
68948;BME280;55996;49.546;7.400;2024-02-26T09:54:30;96854.50;;;7.55;100.00
68948;BME280;55996;49.546;7.400;2024-02-26T09:56:59;96854.38;;;7.58;100.00
68948;BME280;55996;49.546;7.400;2024-02-26T09:59:26;96847.16;;;7.81;100.00
68948;BME280;55996;49.546;7.400;2024-02-26T10:01:53;96850.19;;;7.89;100.00
68948;BME280;55996;49.546;7.400;2024-02-26T10:04:19;96848.47;;;8.05;100.00
68948;BME280;55996;49.546;7.400;2024-02-26T10:06:46;96843.28;;;8.21;100.00
68948;BME280;55996;49.546;7.400;2024-02-26T10:09:12;96851.28;;;8.34;100.00
68948;BME280;55996;49.546;7.400;2024-02-26T10:11:38;96861.59;;;8.36;100.00
68948;BME280;55996;49.546;7.400;2024-02-26T10:14:05;96851.56;;;8.62;100.00
68948;BME280;55996;49.546;7.400;2024-02-26T10:16:31;96853.59;;;8.72;100.00
68948;BME280;55996;49.546;7.400;2024-02-26T10:18:58;96824.00;;;8.74;100.00
68948;BME280;55996;49.546;7.400;2024-02-26T10:21:23;96858.38;;;8.64;100.00
68948;BME280;55996;49.546;7.400;2024-02-26T10:23:49;96865.84;;;8.86;100.00
68948;BME280;55996;49.546;7.400;2024-02-26T10:26:18;96862.81;;;8.94;100.00
68948;BME280;55996;49.546;7.400;2024-02-26T10:28:45;96863.00;;;8.91;100.00
68948;BME280;55996;49.546;7.400;2024-02-26T10:31:11;96881.66;;;8.99;100.00
68948;BME280;55996;49.546;7.400;2024-02-26T10:33:38;96863.56;;;8.96;100.00
68948;BME280;55996;49.546;7.400;2024-02-26T10:36:07;96855.53;;;8.85;100.00
68948;BME280;55996;49.546;7.400;2024-02-26T10:38:33;96878.44;;;9.10;100.00
68948;BME280;55996;49.546;7.400;2024-02-26T10:40:59;96884.59;;;9.09;100.00
68948;BME280;55996;49.546;7.400;2024-02-26T10:43:27;96884.50;;;8.95;100.00
68948;BME280;55996;49.546;7.400;2024-02-26T10:45:55;96880.72;;;9.00;100.00
68948;BME280;55996;49.546;7.400;2024-02-26T10:48:21;96880.22;;;8.94;100.00
68948;BME280;55996;49.546;7.400;2024-02-26T10:50:47;96891.22;;;8.83;100.00
68948;BME280;55996;49.546;7.400;2024-02-26T10:53:16;96894.09;;;8.94;100.00
68948;BME280;55996;49.546;7.400;2024-02-26T10:55:48;96892.91;;;9.00;100.00
68948;BME280;55996;49.546;7.400;2024-02-26T10:58:17;96885.56;;;9.07;100.00
68948;BME280;55996;49.546;7.400;2024-02-26T11:00:42;96908.78;;;9.11;100.00
68948;BME280;55996;49.546;7.400;2024-02-26T11:03:09;96898.81;;;8.87;100.00
68948;BME280;55996;49.546;7.400;2024-02-26T11:05:35;96903.34;;;8.84;100.00
68948;BME280;55996;49.546;7.400;2024-02-26T11:08:02;96898.78;;;9.03;100.00
68948;BME280;55996;49.546;7.400;2024-02-26T11:10:29;96891.81;;;8.88;100.00
68948;BME280;55996;49.546;7.400;2024-02-26T11:12:56;96895.44;;;9.01;100.00
68948;BME280;55996;49.546;7.400;2024-02-26T11:15:22;96907.78;;;9.14;100.00
68948;BME280;55996;49.546;7.400;2024-02-26T11:17:48;96894.03;;;9.26;100.00
68948;BME280;55996;49.546;7.400;2024-02-26T11:20:13;96910.69;;;9.40;100.00
68948;BME280;55996;49.546;7.400;2024-02-26T11:22:40;96897.38;;;9.44;100.00
68948;BME280;55996;49.546;7.400;2024-02-26T11:25:06;96909.19;;;9.35;100.00
68948;BME280;55996;49.546;7.400;2024-02-26T11:27:36;96913.97;;;9.43;100.00
68948;BME280;55996;49.546;7.400;2024-02-26T11:30:05;96897.50;;;9.57;100.00
68948;BME280;55996;49.546;7.400;2024-02-26T11:32:33;96915.38;;;9.79;100.00
68948;BME280;55996;49.546;7.400;2024-02-26T11:35:00;96909.56;;;9.74;100.00
68948;BME280;55996;49.546;7.400;2024-02-26T11:37:26;96900.88;;;9.59;100.00
68948;BME280;55996;49.546;7.400;2024-02-26T11:39:52;96932.03;;;9.77;100.00
68948;BME280;55996;49.546;7.400;2024-02-26T11:42:23;96914.22;;;9.69;100.00
68948;BME280;55996;49.546;7.400;2024-02-26T11:44:50;96932.44;;;9.55;100.00
68948;BME280;55996;49.546;7.400;2024-02-26T11:47:21;96922.22;;;9.35;100.00
68948;BME280;55996;49.546;7.400;2024-02-26T11:49:47;96920.97;;;9.43;100.00
68948;BME280;55996;49.546;7.400;2024-02-26T11:52:13;96936.28;;;9.63;100.00
68948;BME280;55996;49.546;7.400;2024-02-26T11:54:48;96928.16;;;9.53;100.00
68948;BME280;55996;49.546;7.400;2024-02-26T12:00:14;96929.06;;;9.22;100.00
68948;BME280;55996;49.546;7.400;2024-02-26T12:05:11;96931.19;;;9.46;100.00
68948;BME280;55996;49.546;7.400;2024-02-26T12:07:40;96926.88;;;9.30;100.00
68948;BME280;55996;49.546;7.400;2024-02-26T12:10:25;96928.50;;;9.47;100.00
68948;BME280;55996;49.546;7.400;2024-02-26T12:13:16;96921.72;;;9.29;100.00
68948;BME280;55996;49.546;7.400;2024-02-26T12:18:10;96933.03;;;9.44;100.00
68948;BME280;55996;49.546;7.400;2024-02-26T12:20:38;96926.97;;;9.59;100.00
68948;BME280;55996;49.546;7.400;2024-02-26T12:23:04;96937.56;;;9.56;100.00
68948;BME280;55996;49.546;7.400;2024-02-26T12:25:31;96923.50;;;9.28;100.00
68948;BME280;55996;49.546;7.400;2024-02-26T12:27:58;96932.31;;;9.42;100.00
68948;BME280;55996;49.546;7.400;2024-02-26T12:30:24;96944.69;;;9.38;100.00
68948;BME280;55996;49.546;7.400;2024-02-26T12:32:52;96938.88;;;9.49;100.00
68948;BME280;55996;49.546;7.400;2024-02-26T12:35:22;96928.38;;;9.34;100.00
68948;BME280;55996;49.546;7.400;2024-02-26T12:37:47;96951.75;;;9.36;100.00
68948;BME280;55996;49.546;7.400;2024-02-26T12:40:12;96931.38;;;9.43;100.00
68948;BME280;55996;49.546;7.400;2024-02-26T12:42:39;96949.78;;;9.56;100.00
68948;BME280;55996;49.546;7.400;2024-02-26T12:45:06;96942.81;;;9.40;100.00
68948;BME280;55996;49.546;7.400;2024-02-26T12:47:36;96935.78;;;9.26;100.00
68948;BME280;55996;49.546;7.400;2024-02-26T12:50:03;96933.69;;;9.63;100.00
68948;BME280;55996;49.546;7.400;2024-02-26T12:52:31;96952.38;;;9.56;100.00
68948;BME280;55996;49.546;7.400;2024-02-26T12:54:57;96949.22;;;9.50;100.00
68948;BME280;55996;49.546;7.400;2024-02-26T12:57:22;96957.06;;;9.65;100.00
68948;BME280;55996;49.546;7.400;2024-02-26T12:59:48;96951.81;;;9.81;100.00
68948;BME280;55996;49.546;7.400;2024-02-26T13:02:14;96949.38;;;9.78;100.00